sensor_id;sensor_type;location;lat;lon;timestamp;temperature;humidity
9448;DHT22;4762;48.128;11.376;2023-03-01T00:00:40;0.50;99.90
9448;DHT22;4762;48.128;11.376;2023-03-01T00:02:43;0.50;99.90
9448;DHT22;4762;48.128;11.376;2023-03-01T00:04:45;0.50;99.90
9448;DHT22;4762;48.128;11.376;2023-03-01T00:06:47;0.50;99.90
9448;DHT22;4762;48.128;11.376;2023-03-01T00:08:49;0.50;99.90
9448;DHT22;4762;48.128;11.376;2023-03-01T00:11:00;0.50;99.90
9448;DHT22;4762;48.128;11.376;2023-03-01T00:13:02;0.50;99.90
9448;DHT22;4762;48.128;11.376;2023-03-01T00:15:04;0.50;99.90
9448;DHT22;4762;48.128;11.376;2023-03-01T00:17:07;0.40;99.90
9448;DHT22;4762;48.128;11.376;2023-03-01T00:19:11;0.40;99.90
9448;DHT22;4762;48.128;11.376;2023-03-01T00:21:12;0.40;99.90
9448;DHT22;4762;48.128;11.376;2023-03-01T00:23:14;0.40;99.90
9448;DHT22;4762;48.128;11.376;2023-03-01T00:25:16;0.40;99.90
9448;DHT22;4762;48.128;11.376;2023-03-01T00:27:19;0.40;99.90
9448;DHT22;4762;48.128;11.376;2023-03-01T00:29:21;0.40;99.90
9448;DHT22;4762;48.128;11.376;2023-03-01T00:31:24;0.40;99.90
9448;DHT22;4762;48.128;11.376;2023-03-01T00:33:25;0.40;99.90
9448;DHT22;4762;48.128;11.376;2023-03-01T00:35:28;0.40;99.90
9448;DHT22;4762;48.128;11.376;2023-03-01T00:37:30;0.40;99.90
9448;DHT22;4762;48.128;11.376;2023-03-01T00:39:32;0.40;99.90
9448;DHT22;4762;48.128;11.376;2023-03-01T00:41:34;0.40;99.90
9448;DHT22;4762;48.128;11.376;2023-03-01T00:43:37;0.40;99.90
9448;DHT22;4762;48.128;11.376;2023-03-01T00:45:39;0.40;99.90
9448;DHT22;4762;48.128;11.376;2023-03-01T00:47:41;0.40;99.90
9448;DHT22;4762;48.128;11.376;2023-03-01T00:49:43;0.40;99.90
9448;DHT22;4762;48.128;11.376;2023-03-01T00:51:46;0.40;99.90
9448;DHT22;4762;48.128;11.376;2023-03-01T00:53:50;0.40;99.90
9448;DHT22;4762;48.128;11.376;2023-03-01T00:55:50;0.40;99.90
9448;DHT22;4762;48.128;11.376;2023-03-01T00:57:52;0.40;99.90
9448;DHT22;4762;48.128;11.376;2023-03-01T00:59:55;0.40;99.90
9448;DHT22;4762;48.128;11.376;2023-03-01T01:01:57;0.40;99.90
9448;DHT22;4762;48.128;11.376;2023-03-01T01:04:01;0.40;99.90
9448;DHT22;4762;48.128;11.376;2023-03-01T01:06:02;0.40;99.90
9448;DHT22;4762;48.128;11.376;2023-03-01T01:08:05;0.40;99.90
9448;DHT22;4762;48.128;11.376;2023-03-01T01:10:08;0.40;99.90
9448;DHT22;4762;48.128;11.376;2023-03-01T01:12:10;0.40;99.90
9448;DHT22;4762;48.128;11.376;2023-03-01T01:14:13;0.40;99.90
9448;DHT22;4762;48.128;11.376;2023-03-01T01:16:16;0.40;99.90
9448;DHT22;4762;48.128;11.376;2023-03-01T01:18:17;0.40;99.90
9448;DHT22;4762;48.128;11.376;2023-03-01T01:20:20;0.30;99.90
9448;DHT22;4762;48.128;11.376;2023-03-01T01:22:22;0.40;99.90
9448;DHT22;4762;48.128;11.376;2023-03-01T01:24:24;0.30;99.90
9448;DHT22;4762;48.128;11.376;2023-03-01T01:26:28;0.30;99.90
9448;DHT22;4762;48.128;11.376;2023-03-01T01:28:29;0.30;99.90
9448;DHT22;4762;48.128;11.376;2023-03-01T01:30:32;0.30;99.90
9448;DHT22;4762;48.128;11.376;2023-03-01T01:32:34;0.30;99.90
9448;DHT22;4762;48.128;11.376;2023-03-01T01:34:36;0.30;99.90
9448;DHT22;4762;48.128;11.376;2023-03-01T01:36:38;0.30;99.90
9448;DHT22;4762;48.128;11.376;2023-03-01T01:38:41;0.30;99.90
9448;DHT22;4762;48.128;11.376;2023-03-01T01:40:44;0.30;99.90
9448;DHT22;4762;48.128;11.376;2023-03-01T01:42:45;0.30;99.90
9448;DHT22;4762;48.128;11.376;2023-03-01T01:44:47;0.30;99.90
9448;DHT22;4762;48.128;11.376;2023-03-01T01:46:58;0.30;99.90
9448;DHT22;4762;48.128;11.376;2023-03-01T01:49:00;0.30;99.90
9448;DHT22;4762;48.128;11.376;2023-03-01T01:51:02;0.30;99.90
9448;DHT22;4762;48.128;11.376;2023-03-01T01:53:06;0.30;99.90
9448;DHT22;4762;48.128;11.376;2023-03-01T01:55:10;0.30;99.90
9448;DHT22;4762;48.128;11.376;2023-03-01T01:57:12;0.20;99.90
9448;DHT22;4762;48.128;11.376;2023-03-01T01:59:13;0.20;99.90
9448;DHT22;4762;48.128;11.376;2023-03-01T02:01:16;0.20;99.90
9448;DHT22;4762;48.128;11.376;2023-03-01T02:03:20;0.20;99.90
9448;DHT22;4762;48.128;11.376;2023-03-01T02:05:28;0.20;99.90
9448;DHT22;4762;48.128;11.376;2023-03-01T02:07:28;0.20;99.90
9448;DHT22;4762;48.128;11.376;2023-03-01T02:09:30;0.20;99.90
9448;DHT22;4762;48.128;11.376;2023-03-01T02:11:33;0.20;99.90
9448;DHT22;4762;48.128;11.376;2023-03-01T02:13:35;0.20;99.90
9448;DHT22;4762;48.128;11.376;2023-03-01T02:15:38;0.20;99.90
9448;DHT22;4762;48.128;11.376;2023-03-01T02:17:39;0.20;99.90
9448;DHT22;4762;48.128;11.376;2023-03-01T02:22:00;0.20;99.90
9448;DHT22;4762;48.128;11.376;2023-03-01T02:23:59;0.20;99.90
9448;DHT22;4762;48.128;11.376;2023-03-01T02:26:09;0.20;99.90
9448;DHT22;4762;48.128;11.376;2023-03-01T02:28:30;0.20;99.90
9448;DHT22;4762;48.128;11.376;2023-03-01T02:30:32;0.20;99.90
9448;DHT22;4762;48.128;11.376;2023-03-01T02:34:38;0.20;99.90
9448;DHT22;4762;48.128;11.376;2023-03-01T02:36:48;0.10;99.90
9448;DHT22;4762;48.128;11.376;2023-03-01T02:38:50;0.10;99.90
9448;DHT22;4762;48.128;11.376;2023-03-01T02:40:52;0.10;99.90
9448;DHT22;4762;48.128;11.376;2023-03-01T02:42:55;0.10;99.90
9448;DHT22;4762;48.128;11.376;2023-03-01T02:44:56;0.10;99.90
9448;DHT22;4762;48.128;11.376;2023-03-01T02:47:00;0.10;99.90
9448;DHT22;4762;48.128;11.376;2023-03-01T02:49:01;0.10;99.90
9448;DHT22;4762;48.128;11.376;2023-03-01T02:51:24;0.10;99.90
9448;DHT22;4762;48.128;11.376;2023-03-01T02:53:32;0.10;99.90
9448;DHT22;4762;48.128;11.376;2023-03-01T02:55:30;0.10;99.90
9448;DHT22;4762;48.128;11.376;2023-03-01T02:57:33;0.10;99.90
9448;DHT22;4762;48.128;11.376;2023-03-01T02:59:35;0.10;99.90
9448;DHT22;4762;48.128;11.376;2023-03-01T03:01:37;0.10;99.90
9448;DHT22;4762;48.128;11.376;2023-03-01T03:03:39;0.10;99.90
9448;DHT22;4762;48.128;11.376;2023-03-01T03:05:41;0.10;99.90
9448;DHT22;4762;48.128;11.376;2023-03-01T03:07:44;0.10;99.90
9448;DHT22;4762;48.128;11.376;2023-03-01T03:09:46;0.10;99.90
9448;DHT22;4762;48.128;11.376;2023-03-01T03:11:48;0.10;99.90
9448;DHT22;4762;48.128;11.376;2023-03-01T03:13:50;0.10;99.90
9448;DHT22;4762;48.128;11.376;2023-03-01T03:15:53;0.00;99.90
9448;DHT22;4762;48.128;11.376;2023-03-01T03:17:56;0.10;99.90
9448;DHT22;4762;48.128;11.376;2023-03-01T03:19:57;0.00;99.90
9448;DHT22;4762;48.128;11.376;2023-03-01T03:21:59;0.00;99.90
9448;DHT22;4762;48.128;11.376;2023-03-01T03:24:02;0.00;99.90
9448;DHT22;4762;48.128;11.376;2023-03-01T03:26:05;0.10;99.90
9448;DHT22;4762;48.128;11.376;2023-03-01T03:28:06;0.00;99.90
9448;DHT22;4762;48.128;11.376;2023-03-01T03:30:14;0.00;99.90
9448;DHT22;4762;48.128;11.376;2023-03-01T03:32:13;0.00;99.90
9448;DHT22;4762;48.128;11.376;2023-03-01T03:34:16;0.00;99.90
9448;DHT22;4762;48.128;11.376;2023-03-01T03:36:19;0.00;99.90
9448;DHT22;4762;48.128;11.376;2023-03-01T03:38:20;0.00;99.90
9448;DHT22;4762;48.128;11.376;2023-03-01T03:40:23;-0.10;99.90
9448;DHT22;4762;48.128;11.376;2023-03-01T03:42:25;-0.10;99.90
9448;DHT22;4762;48.128;11.376;2023-03-01T03:44:27;-0.10;99.90
9448;DHT22;4762;48.128;11.376;2023-03-01T03:46:29;-0.10;99.90
9448;DHT22;4762;48.128;11.376;2023-03-01T03:48:33;-0.10;99.90
9448;DHT22;4762;48.128;11.376;2023-03-01T03:50:35;-0.10;99.90
9448;DHT22;4762;48.128;11.376;2023-03-01T03:52:37;-0.10;99.90
9448;DHT22;4762;48.128;11.376;2023-03-01T03:54:40;-0.10;99.90
9448;DHT22;4762;48.128;11.376;2023-03-01T03:56:42;-0.10;99.90
9448;DHT22;4762;48.128;11.376;2023-03-01T03:58:45;-0.20;99.90
9448;DHT22;4762;48.128;11.376;2023-03-01T04:00:48;-0.20;99.90
9448;DHT22;4762;48.128;11.376;2023-03-01T04:02:50;-0.20;99.90
9448;DHT22;4762;48.128;11.376;2023-03-01T04:04:52;-0.20;99.90
9448;DHT22;4762;48.128;11.376;2023-03-01T04:06:54;-0.20;99.90
9448;DHT22;4762;48.128;11.376;2023-03-01T04:08:56;-0.20;99.90
9448;DHT22;4762;48.128;11.376;2023-03-01T04:11:00;-0.20;99.90
9448;DHT22;4762;48.128;11.376;2023-03-01T04:13:02;-0.20;99.90
9448;DHT22;4762;48.128;11.376;2023-03-01T04:15:05;-0.20;99.90
9448;DHT22;4762;48.128;11.376;2023-03-01T04:17:08;-0.20;99.90
9448;DHT22;4762;48.128;11.376;2023-03-01T04:19:10;-0.20;99.90
9448;DHT22;4762;48.128;11.376;2023-03-01T04:21:12;-0.20;99.90
9448;DHT22;4762;48.128;11.376;2023-03-01T04:23:16;-0.20;99.90
9448;DHT22;4762;48.128;11.376;2023-03-01T04:25:18;-0.20;99.90
9448;DHT22;4762;48.128;11.376;2023-03-01T04:27:20;-0.20;99.90
9448;DHT22;4762;48.128;11.376;2023-03-01T04:29:22;-0.30;99.90
9448;DHT22;4762;48.128;11.376;2023-03-01T04:31:24;-0.30;99.90
9448;DHT22;4762;48.128;11.376;2023-03-01T04:33:27;-0.30;99.90
9448;DHT22;4762;48.128;11.376;2023-03-01T04:35:29;-0.30;99.90
9448;DHT22;4762;48.128;11.376;2023-03-01T04:37:31;-0.40;99.90
9448;DHT22;4762;48.128;11.376;2023-03-01T04:39:33;-0.40;99.90
9448;DHT22;4762;48.128;11.376;2023-03-01T04:41:36;-0.40;99.90
9448;DHT22;4762;48.128;11.376;2023-03-01T04:43:38;-0.40;99.90
9448;DHT22;4762;48.128;11.376;2023-03-01T04:45:40;-0.40;99.90
9448;DHT22;4762;48.128;11.376;2023-03-01T04:47:43;-0.40;99.90
9448;DHT22;4762;48.128;11.376;2023-03-01T04:49:45;-0.40;99.90
9448;DHT22;4762;48.128;11.376;2023-03-01T04:51:47;-0.40;99.90
9448;DHT22;4762;48.128;11.376;2023-03-01T04:53:49;-0.50;99.90
9448;DHT22;4762;48.128;11.376;2023-03-01T04:55:51;-0.50;99.90
9448;DHT22;4762;48.128;11.376;2023-03-01T04:57:54;-0.50;99.90
9448;DHT22;4762;48.128;11.376;2023-03-01T04:59:56;-0.50;99.90
9448;DHT22;4762;48.128;11.376;2023-03-01T05:01:58;-0.50;99.90
9448;DHT22;4762;48.128;11.376;2023-03-01T05:04:01;-0.50;99.90
9448;DHT22;4762;48.128;11.376;2023-03-01T05:06:03;-0.50;99.90
9448;DHT22;4762;48.128;11.376;2023-03-01T05:08:06;-0.60;99.90
9448;DHT22;4762;48.128;11.376;2023-03-01T05:10:08;-0.50;99.90
9448;DHT22;4762;48.128;11.376;2023-03-01T05:12:10;-0.60;99.90
9448;DHT22;4762;48.128;11.376;2023-03-01T05:14:13;-0.60;99.90
9448;DHT22;4762;48.128;11.376;2023-03-01T05:16:15;-0.60;99.90
9448;DHT22;4762;48.128;11.376;2023-03-01T05:18:17;-0.60;99.90
9448;DHT22;4762;48.128;11.376;2023-03-01T05:20:19;-0.60;99.90
9448;DHT22;4762;48.128;11.376;2023-03-01T05:22:24;-0.50;99.90
9448;DHT22;4762;48.128;11.376;2023-03-01T05:24:27;-0.60;99.90
9448;DHT22;4762;48.128;11.376;2023-03-01T05:26:29;-0.70;99.90
9448;DHT22;4762;48.128;11.376;2023-03-01T05:28:31;-0.70;99.90
9448;DHT22;4762;48.128;11.376;2023-03-01T05:30:34;-0.70;99.90
9448;DHT22;4762;48.128;11.376;2023-03-01T05:32:35;-0.70;99.90
9448;DHT22;4762;48.128;11.376;2023-03-01T05:34:38;-0.70;99.90
9448;DHT22;4762;48.128;11.376;2023-03-01T05:36:40;-0.80;99.90
9448;DHT22;4762;48.128;11.376;2023-03-01T05:38:42;-0.80;99.90
9448;DHT22;4762;48.128;11.376;2023-03-01T05:40:46;-0.80;99.90
9448;DHT22;4762;48.128;11.376;2023-03-01T05:42:50;-0.90;99.90
9448;DHT22;4762;48.128;11.376;2023-03-01T05:44:51;-0.90;99.90
9448;DHT22;4762;48.128;11.376;2023-03-01T05:46:53;-0.90;99.90
9448;DHT22;4762;48.128;11.376;2023-03-01T05:48:55;-1.00;99.90
9448;DHT22;4762;48.128;11.376;2023-03-01T05:50:59;-1.00;99.90
9448;DHT22;4762;48.128;11.376;2023-03-01T05:53:01;-0.90;99.90
9448;DHT22;4762;48.128;11.376;2023-03-01T05:55:03;-1.00;99.90
9448;DHT22;4762;48.128;11.376;2023-03-01T05:57:05;-1.00;99.90
9448;DHT22;4762;48.128;11.376;2023-03-01T05:59:08;-0.90;99.90
9448;DHT22;4762;48.128;11.376;2023-03-01T06:01:11;-0.90;99.90
9448;DHT22;4762;48.128;11.376;2023-03-01T06:03:13;-0.90;99.90
9448;DHT22;4762;48.128;11.376;2023-03-01T06:05:15;-0.90;99.90
9448;DHT22;4762;48.128;11.376;2023-03-01T06:07:17;-0.90;99.90
9448;DHT22;4762;48.128;11.376;2023-03-01T06:09:20;-0.90;99.90
9448;DHT22;4762;48.128;11.376;2023-03-01T06:11:23;-0.90;99.90
9448;DHT22;4762;48.128;11.376;2023-03-01T06:13:25;-0.90;99.90
9448;DHT22;4762;48.128;11.376;2023-03-01T06:15:28;-0.90;99.90
9448;DHT22;4762;48.128;11.376;2023-03-01T06:17:30;-0.90;99.90
9448;DHT22;4762;48.128;11.376;2023-03-01T06:19:32;-0.80;99.90
9448;DHT22;4762;48.128;11.376;2023-03-01T06:21:34;-0.90;99.90
9448;DHT22;4762;48.128;11.376;2023-03-01T06:23:37;-0.90;99.90
9448;DHT22;4762;48.128;11.376;2023-03-01T06:25:39;-0.90;99.90
9448;DHT22;4762;48.128;11.376;2023-03-01T06:27:41;-0.90;99.90
9448;DHT22;4762;48.128;11.376;2023-03-01T06:29:43;-0.90;99.90
9448;DHT22;4762;48.128;11.376;2023-03-01T06:31:46;-0.90;99.90
9448;DHT22;4762;48.128;11.376;2023-03-01T06:33:48;-0.90;99.90
9448;DHT22;4762;48.128;11.376;2023-03-01T06:35:51;-0.90;99.90
9448;DHT22;4762;48.128;11.376;2023-03-01T06:37:52;-0.90;99.90
9448;DHT22;4762;48.128;11.376;2023-03-01T06:39:55;-0.90;99.90
9448;DHT22;4762;48.128;11.376;2023-03-01T06:41:57;-0.80;99.90
9448;DHT22;4762;48.128;11.376;2023-03-01T06:43:59;-0.80;99.90
9448;DHT22;4762;48.128;11.376;2023-03-01T06:46:04;-0.80;99.90
9448;DHT22;4762;48.128;11.376;2023-03-01T06:48:06;-0.70;99.90
9448;DHT22;4762;48.128;11.376;2023-03-01T06:50:09;-0.70;99.90
9448;DHT22;4762;48.128;11.376;2023-03-01T06:52:11;-0.80;99.90
9448;DHT22;4762;48.128;11.376;2023-03-01T06:54:14;-0.70;99.90
9448;DHT22;4762;48.128;11.376;2023-03-01T06:56:16;-0.70;99.90
9448;DHT22;4762;48.128;11.376;2023-03-01T06:58:18;-0.70;99.90
9448;DHT22;4762;48.128;11.376;2023-03-01T07:00:21;-0.70;99.90
9448;DHT22;4762;48.128;11.376;2023-03-01T07:02:23;-0.70;99.90
9448;DHT22;4762;48.128;11.376;2023-03-01T07:04:25;-0.60;99.90
9448;DHT22;4762;48.128;11.376;2023-03-01T07:06:28;-0.80;99.90
9448;DHT22;4762;48.128;11.376;2023-03-01T07:08:30;-0.70;99.90
9448;DHT22;4762;48.128;11.376;2023-03-01T07:10:32;-0.70;99.90
9448;DHT22;4762;48.128;11.376;2023-03-01T07:12:35;-0.70;99.90
9448;DHT22;4762;48.128;11.376;2023-03-01T07:14:37;-0.70;99.90
9448;DHT22;4762;48.128;11.376;2023-03-01T07:16:39;-0.70;99.90
9448;DHT22;4762;48.128;11.376;2023-03-01T07:18:41;-0.60;99.90
9448;DHT22;4762;48.128;11.376;2023-03-01T07:20:44;-0.60;99.90
9448;DHT22;4762;48.128;11.376;2023-03-01T07:22:47;-0.50;99.90
9448;DHT22;4762;48.128;11.376;2023-03-01T07:24:49;-0.50;99.90
9448;DHT22;4762;48.128;11.376;2023-03-01T07:26:51;-0.50;99.90
9448;DHT22;4762;48.128;11.376;2023-03-01T07:28:53;-0.50;99.90
9448;DHT22;4762;48.128;11.376;2023-03-01T07:31:00;-0.50;99.90
9448;DHT22;4762;48.128;11.376;2023-03-01T07:32:58;-0.50;99.90
9448;DHT22;4762;48.128;11.376;2023-03-01T07:35:00;-0.50;99.90
9448;DHT22;4762;48.128;11.376;2023-03-01T07:37:02;-0.50;99.90
9448;DHT22;4762;48.128;11.376;2023-03-01T07:39:05;-0.40;99.90
9448;DHT22;4762;48.128;11.376;2023-03-01T07:41:07;-0.30;99.90
9448;DHT22;4762;48.128;11.376;2023-03-01T07:43:09;-0.30;99.90
9448;DHT22;4762;48.128;11.376;2023-03-01T07:45:12;-0.30;99.90
9448;DHT22;4762;48.128;11.376;2023-03-01T07:47:14;-0.30;99.90
9448;DHT22;4762;48.128;11.376;2023-03-01T07:49:16;-0.30;99.90
9448;DHT22;4762;48.128;11.376;2023-03-01T07:51:18;-0.30;99.90
9448;DHT22;4762;48.128;11.376;2023-03-01T07:53:20;-0.40;99.90
9448;DHT22;4762;48.128;11.376;2023-03-01T07:55:23;-0.30;99.90
9448;DHT22;4762;48.128;11.376;2023-03-01T07:57:25;-0.20;99.90
9448;DHT22;4762;48.128;11.376;2023-03-01T07:59:27;-0.20;99.90
9448;DHT22;4762;48.128;11.376;2023-03-01T08:01:29;-0.20;99.90
9448;DHT22;4762;48.128;11.376;2023-03-01T08:03:32;-0.10;99.90
9448;DHT22;4762;48.128;11.376;2023-03-01T08:05:34;0.00;99.90
9448;DHT22;4762;48.128;11.376;2023-03-01T08:07:36;0.00;99.90
9448;DHT22;4762;48.128;11.376;2023-03-01T08:09:38;0.10;99.90
9448;DHT22;4762;48.128;11.376;2023-03-01T08:11:41;0.30;99.90
9448;DHT22;4762;48.128;11.376;2023-03-01T08:13:43;0.20;99.90
9448;DHT22;4762;48.128;11.376;2023-03-01T08:15:45;0.30;99.90
9448;DHT22;4762;48.128;11.376;2023-03-01T08:17:48;0.40;99.90
9448;DHT22;4762;48.128;11.376;2023-03-01T08:19:50;0.40;99.90
9448;DHT22;4762;48.128;11.376;2023-03-01T08:21:52;0.40;99.90
9448;DHT22;4762;48.128;11.376;2023-03-01T08:23:54;0.40;99.90
9448;DHT22;4762;48.128;11.376;2023-03-01T08:26:11;0.40;99.90
9448;DHT22;4762;48.128;11.376;2023-03-01T08:28:12;0.40;99.90
9448;DHT22;4762;48.128;11.376;2023-03-01T08:30:15;0.40;99.90
9448;DHT22;4762;48.128;11.376;2023-03-01T08:32:17;0.50;99.90
9448;DHT22;4762;48.128;11.376;2023-03-01T08:34:19;0.60;99.90
9448;DHT22;4762;48.128;11.376;2023-03-01T08:36:25;0.70;99.90
9448;DHT22;4762;48.128;11.376;2023-03-01T08:38:26;0.70;99.90
9448;DHT22;4762;48.128;11.376;2023-03-01T08:40:29;0.70;99.90
9448;DHT22;4762;48.128;11.376;2023-03-01T08:42:32;0.70;99.90
9448;DHT22;4762;48.128;11.376;2023-03-01T08:44:33;0.90;99.90
9448;DHT22;4762;48.128;11.376;2023-03-01T08:46:36;0.60;99.90
9448;DHT22;4762;48.128;11.376;2023-03-01T08:48:38;0.70;99.90
9448;DHT22;4762;48.128;11.376;2023-03-01T08:50:40;0.80;99.90
9448;DHT22;4762;48.128;11.376;2023-03-01T08:52:42;0.80;99.90
9448;DHT22;4762;48.128;11.376;2023-03-01T08:54:44;1.00;99.90
9448;DHT22;4762;48.128;11.376;2023-03-01T08:56:47;0.90;99.90
9448;DHT22;4762;48.128;11.376;2023-03-01T08:58:49;1.30;99.90
9448;DHT22;4762;48.128;11.376;2023-03-01T09:00:51;1.20;99.90
9448;DHT22;4762;48.128;11.376;2023-03-01T09:02:53;1.40;99.90
9448;DHT22;4762;48.128;11.376;2023-03-01T09:04:56;1.30;99.90
9448;DHT22;4762;48.128;11.376;2023-03-01T09:06:58;1.40;99.90
9448;DHT22;4762;48.128;11.376;2023-03-01T09:09:00;1.60;99.90
9448;DHT22;4762;48.128;11.376;2023-03-01T09:11:03;1.70;99.90
9448;DHT22;4762;48.128;11.376;2023-03-01T09:13:05;1.60;99.90
9448;DHT22;4762;48.128;11.376;2023-03-01T09:15:08;1.60;99.90
9448;DHT22;4762;48.128;11.376;2023-03-01T09:17:14;1.80;99.90
9448;DHT22;4762;48.128;11.376;2023-03-01T09:19:16;1.70;99.90
9448;DHT22;4762;48.128;11.376;2023-03-01T09:21:20;1.60;99.90
9448;DHT22;4762;48.128;11.376;2023-03-01T09:23:21;1.80;99.90
9448;DHT22;4762;48.128;11.376;2023-03-01T09:25:23;1.80;99.90
9448;DHT22;4762;48.128;11.376;2023-03-01T09:27:25;1.60;99.90
9448;DHT22;4762;48.128;11.376;2023-03-01T09:29:28;1.90;99.90
9448;DHT22;4762;48.128;11.376;2023-03-01T09:31:30;2.10;99.90
9448;DHT22;4762;48.128;11.376;2023-03-01T09:33:32;1.70;99.90
9448;DHT22;4762;48.128;11.376;2023-03-01T09:35:34;1.80;99.90
9448;DHT22;4762;48.128;11.376;2023-03-01T09:37:37;1.80;99.90
9448;DHT22;4762;48.128;11.376;2023-03-01T09:39:39;1.80;99.90
9448;DHT22;4762;48.128;11.376;2023-03-01T09:41:48;2.10;99.90
9448;DHT22;4762;48.128;11.376;2023-03-01T09:43:52;2.20;99.90
9448;DHT22;4762;48.128;11.376;2023-03-01T09:45:53;2.40;99.90
9448;DHT22;4762;48.128;11.376;2023-03-01T09:47:56;2.30;99.90
9448;DHT22;4762;48.128;11.376;2023-03-01T09:50:06;2.20;99.90
9448;DHT22;4762;48.128;11.376;2023-03-01T09:52:13;2.20;99.90
9448;DHT22;4762;48.128;11.376;2023-03-01T09:54:13;2.60;99.90
9448;DHT22;4762;48.128;11.376;2023-03-01T09:56:20;2.40;99.90
9448;DHT22;4762;48.128;11.376;2023-03-01T09:58:31;2.40;99.90
9448;DHT22;4762;48.128;11.376;2023-03-01T10:00:47;2.30;99.90
9448;DHT22;4762;48.128;11.376;2023-03-01T10:02:51;2.50;99.90
9448;DHT22;4762;48.128;11.376;2023-03-01T10:04:55;2.70;99.90
9448;DHT22;4762;48.128;11.376;2023-03-01T10:09:26;2.70;99.90
9448;DHT22;4762;48.128;11.376;2023-03-01T10:11:32;2.30;99.90
9448;DHT22;4762;48.128;11.376;2023-03-01T10:13:37;2.40;99.90
9448;DHT22;4762;48.128;11.376;2023-03-01T10:15:39;2.50;99.90
9448;DHT22;4762;48.128;11.376;2023-03-01T10:17:51;2.70;99.90
9448;DHT22;4762;48.128;11.376;2023-03-01T10:19:52;2.80;99.90
9448;DHT22;4762;48.128;11.376;2023-03-01T10:21:54;2.60;99.90
9448;DHT22;4762;48.128;11.376;2023-03-01T10:24:01;2.50;99.90
9448;DHT22;4762;48.128;11.376;2023-03-01T10:26:09;2.50;99.90
9448;DHT22;4762;48.128;11.376;2023-03-01T10:28:17;2.70;99.90
9448;DHT22;4762;48.128;11.376;2023-03-01T10:30:22;2.50;99.90
9448;DHT22;4762;48.128;11.376;2023-03-01T10:32:23;2.50;99.90
9448;DHT22;4762;48.128;11.376;2023-03-01T10:34:29;2.80;99.90
9448;DHT22;4762;48.128;11.376;2023-03-01T10:36:32;2.50;99.90
9448;DHT22;4762;48.128;11.376;2023-03-01T10:40:51;2.70;99.90
9448;DHT22;4762;48.128;11.376;2023-03-01T10:42:52;2.90;99.90
9448;DHT22;4762;48.128;11.376;2023-03-01T10:44:54;2.90;99.90
9448;DHT22;4762;48.128;11.376;2023-03-01T10:46:59;3.00;99.90
9448;DHT22;4762;48.128;11.376;2023-03-01T10:49:07;3.20;99.90
9448;DHT22;4762;48.128;11.376;2023-03-01T10:51:10;2.90;99.90
9448;DHT22;4762;48.128;11.376;2023-03-01T10:53:32;3.20;99.90
9448;DHT22;4762;48.128;11.376;2023-03-01T10:55:38;3.60;99.90
9448;DHT22;4762;48.128;11.376;2023-03-01T10:57:39;3.70;99.90
9448;DHT22;4762;48.128;11.376;2023-03-01T10:59:41;3.80;99.90
9448;DHT22;4762;48.128;11.376;2023-03-01T11:01:44;3.80;99.90
9448;DHT22;4762;48.128;11.376;2023-03-01T11:03:55;4.00;99.90
9448;DHT22;4762;48.128;11.376;2023-03-01T11:05:54;3.70;99.90
9448;DHT22;4762;48.128;11.376;2023-03-01T11:07:56;3.70;99.90
9448;DHT22;4762;48.128;11.376;2023-03-01T11:09:57;3.50;99.90
9448;DHT22;4762;48.128;11.376;2023-03-01T11:12:00;4.10;99.90
9448;DHT22;4762;48.128;11.376;2023-03-01T11:14:15;4.40;99.90
9448;DHT22;4762;48.128;11.376;2023-03-01T11:16:15;4.80;99.90
9448;DHT22;4762;48.128;11.376;2023-03-01T11:18:21;4.50;99.90
9448;DHT22;4762;48.128;11.376;2023-03-01T11:20:33;4.80;99.90
9448;DHT22;4762;48.128;11.376;2023-03-01T11:22:34;5.20;99.90
9448;DHT22;4762;48.128;11.376;2023-03-01T11:24:44;5.30;99.90
9448;DHT22;4762;48.128;11.376;2023-03-01T11:26:47;5.20;99.90
9448;DHT22;4762;48.128;11.376;2023-03-01T11:28:49;5.60;99.90
9448;DHT22;4762;48.128;11.376;2023-03-01T11:30:56;6.00;99.90
9448;DHT22;4762;48.128;11.376;2023-03-01T11:35:16;5.70;99.90
9448;DHT22;4762;48.128;11.376;2023-03-01T11:37:22;5.50;99.90
9448;DHT22;4762;48.128;11.376;2023-03-01T11:39:32;5.50;99.90
9448;DHT22;4762;48.128;11.376;2023-03-01T11:41:33;5.50;99.90
9448;DHT22;4762;48.128;11.376;2023-03-01T11:43:45;5.80;99.90
9448;DHT22;4762;48.128;11.376;2023-03-01T11:47:55;5.70;99.90
9448;DHT22;4762;48.128;11.376;2023-03-01T11:50:03;6.20;99.70
9448;DHT22;4762;48.128;11.376;2023-03-01T11:52:29;6.90;98.90
9448;DHT22;4762;48.128;11.376;2023-03-01T11:54:40;6.70;97.80
9448;DHT22;4762;48.128;11.376;2023-03-01T11:56:39;6.60;97.80
9448;DHT22;4762;48.128;11.376;2023-03-01T11:58:54;6.30;98.80
9448;DHT22;4762;48.128;11.376;2023-03-01T12:01:13;6.50;98.60
9448;DHT22;4762;48.128;11.376;2023-03-01T12:03:21;6.50;97.60
9448;DHT22;4762;48.128;11.376;2023-03-01T12:05:47;7.70;96.10
9448;DHT22;4762;48.128;11.376;2023-03-01T12:08:12;7.80;93.80
9448;DHT22;4762;48.128;11.376;2023-03-01T12:10:20;7.50;95.40
9448;DHT22;4762;48.128;11.376;2023-03-01T12:12:28;7.50;95.20
9448;DHT22;4762;48.128;11.376;2023-03-01T12:14:36;7.50;94.90
9448;DHT22;4762;48.128;11.376;2023-03-01T12:18:57;7.90;92.80
9448;DHT22;4762;48.128;11.376;2023-03-01T12:21:05;7.70;93.50
9448;DHT22;4762;48.128;11.376;2023-03-01T12:23:16;6.70;95.30
9448;DHT22;4762;48.128;11.376;2023-03-01T12:25:48;7.90;95.00
9448;DHT22;4762;48.128;11.376;2023-03-01T12:28:01;8.70;93.80
9448;DHT22;4762;48.128;11.376;2023-03-01T12:32:34;7.50;93.50
9448;DHT22;4762;48.128;11.376;2023-03-01T12:34:45;7.90;91.90
9448;DHT22;4762;48.128;11.376;2023-03-01T12:36:54;7.50;93.40
9448;DHT22;4762;48.128;11.376;2023-03-01T12:39:00;7.90;91.50
9448;DHT22;4762;48.128;11.376;2023-03-01T12:41:08;7.90;91.40
9448;DHT22;4762;48.128;11.376;2023-03-01T12:43:36;7.30;91.80
9448;DHT22;4762;48.128;11.376;2023-03-01T12:45:59;7.00;93.60
9448;DHT22;4762;48.128;11.376;2023-03-01T12:48:07;7.40;93.70
9448;DHT22;4762;48.128;11.376;2023-03-01T12:50:11;7.70;92.70
9448;DHT22;4762;48.128;11.376;2023-03-01T12:52:14;7.60;92.00
9448;DHT22;4762;48.128;11.376;2023-03-01T12:54:16;7.10;93.10
9448;DHT22;4762;48.128;11.376;2023-03-01T12:56:21;7.70;93.60
9448;DHT22;4762;48.128;11.376;2023-03-01T12:58:24;8.10;91.80
9448;DHT22;4762;48.128;11.376;2023-03-01T13:00:38;8.10;91.00
9448;DHT22;4762;48.128;11.376;2023-03-01T13:02:45;8.30;90.20
9448;DHT22;4762;48.128;11.376;2023-03-01T13:07:02;9.00;88.10
9448;DHT22;4762;48.128;11.376;2023-03-01T13:09:14;8.60;90.30
9448;DHT22;4762;48.128;11.376;2023-03-01T13:11:19;8.80;86.50
9448;DHT22;4762;48.128;11.376;2023-03-01T13:13:22;8.80;86.60
9448;DHT22;4762;48.128;11.376;2023-03-01T13:15:29;8.80;84.70
9448;DHT22;4762;48.128;11.376;2023-03-01T13:17:32;8.20;85.30
9448;DHT22;4762;48.128;11.376;2023-03-01T13:19:33;8.40;87.70
9448;DHT22;4762;48.128;11.376;2023-03-01T13:21:35;8.20;89.70
9448;DHT22;4762;48.128;11.376;2023-03-01T13:23:38;8.20;85.60
9448;DHT22;4762;48.128;11.376;2023-03-01T13:26:23;8.10;87.60
9448;DHT22;4762;48.128;11.376;2023-03-01T13:32:43;8.70;85.50
9448;DHT22;4762;48.128;11.376;2023-03-01T13:34:47;8.30;81.00
9448;DHT22;4762;48.128;11.376;2023-03-01T13:36:49;8.30;85.70
9448;DHT22;4762;48.128;11.376;2023-03-01T13:38:59;8.50;81.70
9448;DHT22;4762;48.128;11.376;2023-03-01T13:41:00;8.30;86.90
9448;DHT22;4762;48.128;11.376;2023-03-01T13:45:19;8.30;87.50
9448;DHT22;4762;48.128;11.376;2023-03-01T13:47:20;8.40;86.40
9448;DHT22;4762;48.128;11.376;2023-03-01T13:49:22;8.70;80.90
9448;DHT22;4762;48.128;11.376;2023-03-01T13:51:26;8.30;83.10